Christina — DLFQ — position and weather

sailwx.info

Track history (hours):
 
Tides and Currents Weather Stations Pressure Air Temp Water Temp Dewpoint Dewpoint Depression Visibility Wind Speed Wind Dir Waves Ship Positions

Christina

Last reported at 2018-Apr-07 13:19 UTC. Time now 2018-Apr-19 17:35 UTC.
Position N 28°58' W 013°32'.
Warning: this ship's position is 12 days out of date.

Length 13 m.

Type: Sailing vessel. MMSI: 211154590.

Date/timePositionNaut miles runAvg speedWind from/ knotsBaromVisibWave heightAir tempDewpointWater temp
2018-Apr-07 13:19N 28°58' W 013°32'0 0.0
2018-Apr-07 13:00N 28°58' W 013°32'  
2018-Apr-02 11:09N 28°58' W 013°32'0 0.0
2018-Apr-02 10:56N 28°58' W 013°32'1 1.5
2018-Apr-02 10:30N 28°57' W 013°32'3 6.2
2018-Apr-02 09:59N 28°55' W 013°35'3 5.9
2018-Apr-02 09:29N 28°54' W 013°38'3 5.8
2018-Apr-02 08:58N 28°52' W 013°41'2 4.4
2018-Apr-02 08:30N 28°51' W 013°43'67 5.9
2018-Apr-01 21:15N 28°42' W 014°58'2 6.2
2018-Apr-01 20:54N 28°42' W 015°01'3 6.1
2018-Apr-01 20:27N 28°41' W 015°04'3 6.1
2018-Apr-01 19:57N 28°41' W 015°08'3 5.9
2018-Apr-01 19:27N 28°41' W 015°11'3 5.9
2018-Apr-01 18:56N 28°40' W 015°14'3 5.9
2018-Apr-01 18:25N 28°40' W 015°18'3 5.9
2018-Apr-01 17:55N 28°40' W 015°21'3 5.8
2018-Apr-01 17:25N 28°39' W 015°24'3 5.8
2018-Apr-01 16:55N 28°39' W 015°28'2 5.9
2018-Apr-01 16:30N 28°38' W 015°30'3 5.9
2018-Apr-01 16:00N 28°38' W 015°34'3 5.7
2018-Apr-01 15:30N 28°38' W 015°37'3 5.6
2018-Apr-01 15:00N 28°37' W 015°40'3 5.6
2018-Apr-01 14:30N 28°37' W 015°43'  
Track history (hours):
 
Tides and Currents Weather Stations Pressure Air Temp Water Temp Dewpoint Dewpoint Depression Visibility Wind Speed Wind Dir Waves Ship Positions

Christina

Last reported at 2018-Apr-07 13:19 UTC. Time now 2018-Apr-19 17:35 UTC.
Position N 28°58' W 013°32'.
Warning: this ship's position is 12 days out of date.

Length 13 m.

Type: Sailing vessel. MMSI: 211154590.

Date/timePositionNaut miles runAvg speedWind from/ knotsBaromVisibWave heightAir tempDewpointWater temp
2018-Apr-07 13:19N 28°58' W 013°32'0 0.0
2018-Apr-07 13:00N 28°58' W 013°32'  
2018-Apr-02 11:09N 28°58' W 013°32'0 0.0
2018-Apr-02 10:56N 28°58' W 013°32'1 1.5
2018-Apr-02 10:30N 28°57' W 013°32'3 6.2
2018-Apr-02 09:59N 28°55' W 013°35'3 5.9
2018-Apr-02 09:29N 28°54' W 013°38'3 5.8
2018-Apr-02 08:58N 28°52' W 013°41'2 4.4
2018-Apr-02 08:30N 28°51' W 013°43'67 5.9
2018-Apr-01 21:15N 28°42' W 014°58'2 6.2
2018-Apr-01 20:54N 28°42' W 015°01'3 6.1
2018-Apr-01 20:27N 28°41' W 015°04'3 6.1
2018-Apr-01 19:57N 28°41' W 015°08'3 5.9
2018-Apr-01 19:27N 28°41' W 015°11'3 5.9
2018-Apr-01 18:56N 28°40' W 015°14'3 5.9
2018-Apr-01 18:25N 28°40' W 015°18'3 5.9
2018-Apr-01 17:55N 28°40' W 015°21'3 5.8
2018-Apr-01 17:25N 28°39' W 015°24'3 5.8
2018-Apr-01 16:55N 28°39' W 015°28'2 5.9
2018-Apr-01 16:30N 28°38' W 015°30'3 5.9
2018-Apr-01 16:00N 28°38' W 015°34'3 5.7
2018-Apr-01 15:30N 28°38' W 015°37'3 5.6
2018-Apr-01 15:00N 28°37' W 015°40'3 5.6
2018-Apr-01 14:30N 28°37' W 015°43'  

Dump ship's entire track history